sensor_id;sensor_type;location;lat;lon;timestamp;temperature;humidity
52435;DHT22;38354;52.892;6.148;2023-04-15T04:00:28;5.20;99.90
52435;DHT22;38354;52.892;6.148;2023-04-15T04:02:54;5.20;99.90
52435;DHT22;38354;52.892;6.148;2023-04-15T04:05:19;5.20;99.90
52435;DHT22;38354;52.892;6.148;2023-04-15T04:07:45;5.20;99.90
52435;DHT22;38354;52.892;6.148;2023-04-15T04:10:12;5.20;99.90
52435;DHT22;38354;52.892;6.148;2023-04-15T04:12:37;5.20;99.90
52435;DHT22;38354;52.892;6.148;2023-04-15T04:15:03;5.20;99.90
52435;DHT22;38354;52.892;6.148;2023-04-15T04:17:29;5.10;99.90
52435;DHT22;38354;52.892;6.148;2023-04-15T04:20:00;5.20;99.90
52435;DHT22;38354;52.892;6.148;2023-04-15T04:22:30;5.10;99.90
52435;DHT22;38354;52.892;6.148;2023-04-15T04:24:55;5.10;99.90
52435;DHT22;38354;52.892;6.148;2023-04-15T04:27:23;5.10;99.90
52435;DHT22;38354;52.892;6.148;2023-04-15T04:29:49;5.10;99.90
52435;DHT22;38354;52.892;6.148;2023-04-15T04:32:15;5.10;99.90
52435;DHT22;38354;52.892;6.148;2023-04-15T04:34:41;5.10;99.90
52435;DHT22;38354;52.892;6.148;2023-04-15T04:37:06;5.10;99.90
52435;DHT22;38354;52.892;6.148;2023-04-15T04:39:32;5.00;99.90
52435;DHT22;38354;52.892;6.148;2023-04-15T04:41:58;5.00;99.90
52435;DHT22;38354;52.892;6.148;2023-04-15T04:44:23;5.00;99.90
52435;DHT22;38354;52.892;6.148;2023-04-15T04:46:49;5.00;99.90
52435;DHT22;38354;52.892;6.148;2023-04-15T04:49:15;5.00;99.90
52435;DHT22;38354;52.892;6.148;2023-04-15T04:51:40;5.00;99.90
52435;DHT22;38354;52.892;6.148;2023-04-15T04:54:06;5.00;99.90
52435;DHT22;38354;52.892;6.148;2023-04-15T04:56:32;5.00;99.90
52435;DHT22;38354;52.892;6.148;2023-04-15T04:59:00;4.90;99.90
52435;DHT22;38354;52.892;6.148;2023-04-15T05:01:26;5.00;99.90
52435;DHT22;38354;52.892;6.148;2023-04-15T05:03:52;5.00;99.90
52435;DHT22;38354;52.892;6.148;2023-04-15T05:06:17;5.00;99.90
52435;DHT22;38354;52.892;6.148;2023-04-15T05:08:43;5.00;99.90
52435;DHT22;38354;52.892;6.148;2023-04-15T05:11:09;5.00;99.90
52435;DHT22;38354;52.892;6.148;2023-04-15T05:13:34;5.00;99.90
52435;DHT22;38354;52.892;6.148;2023-04-15T05:16:04;5.00;99.90
52435;DHT22;38354;52.892;6.148;2023-04-15T05:18:29;5.00;99.90
52435;DHT22;38354;52.892;6.148;2023-04-15T05:20:55;5.00;99.90
52435;DHT22;38354;52.892;6.148;2023-04-15T05:23:21;5.00;99.90
52435;DHT22;38354;52.892;6.148;2023-04-15T05:25:47;5.00;99.90
52435;DHT22;38354;52.892;6.148;2023-04-15T05:28:12;5.10;99.90
52435;DHT22;38354;52.892;6.148;2023-04-15T05:30:38;5.10;99.90
52435;DHT22;38354;52.892;6.148;2023-04-15T05:33:04;5.10;99.90
52435;DHT22;38354;52.892;6.148;2023-04-15T05:35:29;5.10;99.90
52435;DHT22;38354;52.892;6.148;2023-04-15T05:37:55;5.20;99.90
52435;DHT22;38354;52.892;6.148;2023-04-15T05:40:21;5.20;99.90
52435;DHT22;38354;52.892;6.148;2023-04-15T05:42:47;5.20;99.90
52435;DHT22;38354;52.892;6.148;2023-04-15T05:45:12;5.30;99.90
52435;DHT22;38354;52.892;6.148;2023-04-15T05:47:38;5.30;99.90
52435;DHT22;38354;52.892;6.148;2023-04-15T05:50:04;5.40;99.90
52435;DHT22;38354;52.892;6.148;2023-04-15T05:52:31;5.40;99.90
52435;DHT22;38354;52.892;6.148;2023-04-15T05:54:57;5.40;99.90
52435;DHT22;38354;52.892;6.148;2023-04-15T05:57:23;5.50;99.90
52435;DHT22;38354;52.892;6.148;2023-04-15T05:59:48;5.50;99.90
52435;DHT22;38354;52.892;6.148;2023-04-15T06:02:16;5.60;99.90
52435;DHT22;38354;52.892;6.148;2023-04-15T06:04:42;5.60;99.90
52435;DHT22;38354;52.892;6.148;2023-04-15T06:07:08;5.70;99.90
52435;DHT22;38354;52.892;6.148;2023-04-15T06:09:34;5.70;99.90
52435;DHT22;38354;52.892;6.148;2023-04-15T06:12:00;5.80;99.90
52435;DHT22;38354;52.892;6.148;2023-04-15T06:14:27;5.80;99.90
52435;DHT22;38354;52.892;6.148;2023-04-15T06:16:53;5.90;99.90
52435;DHT22;38354;52.892;6.148;2023-04-15T06:19:18;5.90;99.90
52435;DHT22;38354;52.892;6.148;2023-04-15T06:21:44;6.00;99.90
52435;DHT22;38354;52.892;6.148;2023-04-15T06:24:11;6.00;99.90
52435;DHT22;38354;52.892;6.148;2023-04-15T06:26:36;6.00;99.90
52435;DHT22;38354;52.892;6.148;2023-04-15T06:29:02;6.00;99.90
52435;DHT22;38354;52.892;6.148;2023-04-15T06:31:28;6.00;99.90
52435;DHT22;38354;52.892;6.148;2023-04-15T06:33:54;6.10;99.90
52435;DHT22;38354;52.892;6.148;2023-04-15T06:36:19;6.10;99.90
52435;DHT22;38354;52.892;6.148;2023-04-15T06:38:45;6.20;99.90
52435;DHT22;38354;52.892;6.148;2023-04-15T06:41:11;6.20;99.90
52435;DHT22;38354;52.892;6.148;2023-04-15T06:43:37;6.20;99.90
52435;DHT22;38354;52.892;6.148;2023-04-15T06:46:02;6.30;99.90
52435;DHT22;38354;52.892;6.148;2023-04-15T06:48:28;6.40;99.90
52435;DHT22;38354;52.892;6.148;2023-04-15T06:50:54;6.50;99.90
52435;DHT22;38354;52.892;6.148;2023-04-15T06:53:19;6.60;99.90
52435;DHT22;38354;52.892;6.148;2023-04-15T06:55:46;6.70;99.90
52435;DHT22;38354;52.892;6.148;2023-04-15T06:58:12;6.80;99.90
52435;DHT22;38354;52.892;6.148;2023-04-15T07:00:37;6.90;99.90
52435;DHT22;38354;52.892;6.148;2023-04-15T07:03:04;7.00;99.90
52435;DHT22;38354;52.892;6.148;2023-04-15T07:05:29;7.10;99.90
52435;DHT22;38354;52.892;6.148;2023-04-15T07:07:56;7.20;99.90
52435;DHT22;38354;52.892;6.148;2023-04-15T07:10:22;7.30;99.90
52435;DHT22;38354;52.892;6.148;2023-04-15T07:12:48;7.40;99.90
52435;DHT22;38354;52.892;6.148;2023-04-15T07:15:15;7.50;99.90
52435;DHT22;38354;52.892;6.148;2023-04-15T07:17:41;7.70;99.90
52435;DHT22;38354;52.892;6.148;2023-04-15T07:20:08;7.70;99.90
52435;DHT22;38354;52.892;6.148;2023-04-15T07:22:33;7.80;99.90
52435;DHT22;38354;52.892;6.148;2023-04-15T07:24:59;7.90;99.90
52435;DHT22;38354;52.892;6.148;2023-04-15T07:27:25;8.00;99.90
52435;DHT22;38354;52.892;6.148;2023-04-15T07:29:51;8.10;99.90
52435;DHT22;38354;52.892;6.148;2023-04-15T07:32:17;8.10;99.90
52435;DHT22;38354;52.892;6.148;2023-04-15T07:34:43;8.20;99.90
52435;DHT22;38354;52.892;6.148;2023-04-15T07:37:09;8.30;99.90
52435;DHT22;38354;52.892;6.148;2023-04-15T07:39:35;8.40;99.90
52435;DHT22;38354;52.892;6.148;2023-04-15T07:42:01;8.50;99.90
52435;DHT22;38354;52.892;6.148;2023-04-15T07:44:28;8.60;99.90
52435;DHT22;38354;52.892;6.148;2023-04-15T07:46:54;8.70;99.90
52435;DHT22;38354;52.892;6.148;2023-04-15T07:49:20;8.80;99.90
52435;DHT22;38354;52.892;6.148;2023-04-15T07:51:46;8.90;99.90
52435;DHT22;38354;52.892;6.148;2023-04-15T07:54:13;9.10;99.90
52435;DHT22;38354;52.892;6.148;2023-04-15T07:56:39;9.20;99.90
52435;DHT22;38354;52.892;6.148;2023-04-15T07:59:05;9.30;99.90
52435;DHT22;38354;52.892;6.148;2023-04-15T08:01:31;9.50;99.90
52435;DHT22;38354;52.892;6.148;2023-04-15T08:03:58;9.60;99.90
52435;DHT22;38354;52.892;6.148;2023-04-15T08:06:23;9.70;99.90
52435;DHT22;38354;52.892;6.148;2023-04-15T08:08:49;9.80;99.90
52435;DHT22;38354;52.892;6.148;2023-04-15T08:11:15;10.00;99.90
52435;DHT22;38354;52.892;6.148;2023-04-15T08:13:41;10.00;99.90
52435;DHT22;38354;52.892;6.148;2023-04-15T08:16:21;10.10;99.90
52435;DHT22;38354;52.892;6.148;2023-04-15T08:18:48;10.20;99.90
52435;DHT22;38354;52.892;6.148;2023-04-15T08:21:15;10.20;99.90
52435;DHT22;38354;52.892;6.148;2023-04-15T08:23:40;10.20;99.90
52435;DHT22;38354;52.892;6.148;2023-04-15T08:26:07;10.30;99.90
52435;DHT22;38354;52.892;6.148;2023-04-15T08:28:33;10.50;99.90
52435;DHT22;38354;52.892;6.148;2023-04-15T08:30:59;10.60;99.90
52435;DHT22;38354;52.892;6.148;2023-04-15T08:33:25;10.70;99.90
52435;DHT22;38354;52.892;6.148;2023-04-15T08:35:50;10.70;99.90
52435;DHT22;38354;52.892;6.148;2023-04-15T08:38:16;10.90;99.90
52435;DHT22;38354;52.892;6.148;2023-04-15T08:40:46;10.80;99.90
52435;DHT22;38354;52.892;6.148;2023-04-15T08:43:20;10.90;99.90
52435;DHT22;38354;52.892;6.148;2023-04-15T08:45:52;10.90;99.90
52435;DHT22;38354;52.892;6.148;2023-04-15T08:48:18;10.90;99.90
52435;DHT22;38354;52.892;6.148;2023-04-15T08:50:44;10.90;99.90
52435;DHT22;38354;52.892;6.148;2023-04-15T08:53:11;10.90;99.90
52435;DHT22;38354;52.892;6.148;2023-04-15T08:55:42;11.10;99.90
52435;DHT22;38354;52.892;6.148;2023-04-15T08:58:12;11.20;99.90
52435;DHT22;38354;52.892;6.148;2023-04-15T09:00:39;11.30;99.90
52435;DHT22;38354;52.892;6.148;2023-04-15T09:03:05;11.40;99.90
52435;DHT22;38354;52.892;6.148;2023-04-15T09:05:32;11.40;99.90
52435;DHT22;38354;52.892;6.148;2023-04-15T09:07:59;11.30;99.90
52435;DHT22;38354;52.892;6.148;2023-04-15T09:10:25;11.30;99.90
52435;DHT22;38354;52.892;6.148;2023-04-15T09:12:50;11.30;99.90
52435;DHT22;38354;52.892;6.148;2023-04-15T09:15:16;11.20;99.90
52435;DHT22;38354;52.892;6.148;2023-04-15T09:17:45;11.10;99.90
52435;DHT22;38354;52.892;6.148;2023-04-15T09:20:15;11.00;99.90
52435;DHT22;38354;52.892;6.148;2023-04-15T09:22:42;11.00;99.90
52435;DHT22;38354;52.892;6.148;2023-04-15T09:27:53;11.00;99.90
52435;DHT22;38354;52.892;6.148;2023-04-15T09:30:19;10.90;99.90
52435;DHT22;38354;52.892;6.148;2023-04-15T09:32:53;10.80;99.90
52435;DHT22;38354;52.892;6.148;2023-04-15T09:35:21;10.70;99.90
52435;DHT22;38354;52.892;6.148;2023-04-15T09:37:50;10.70;99.90
52435;DHT22;38354;52.892;6.148;2023-04-15T09:43:02;10.80;99.90
52435;DHT22;38354;52.892;6.148;2023-04-15T09:45:29;10.80;99.90
52435;DHT22;38354;52.892;6.148;2023-04-15T09:47:56;10.80;99.90
52435;DHT22;38354;52.892;6.148;2023-04-15T09:50:26;10.80;99.90
52435;DHT22;38354;52.892;6.148;2023-04-15T09:52:52;10.80;99.90
52435;DHT22;38354;52.892;6.148;2023-04-15T09:55:18;10.80;99.90
52435;DHT22;38354;52.892;6.148;2023-04-15T09:57:45;10.70;99.90
52435;DHT22;38354;52.892;6.148;2023-04-15T10:00:12;10.60;99.90
52435;DHT22;38354;52.892;6.148;2023-04-15T10:02:39;10.60;99.90
52435;DHT22;38354;52.892;6.148;2023-04-15T10:05:07;10.60;99.90
52435;DHT22;38354;52.892;6.148;2023-04-15T10:07:35;10.60;99.90
52435;DHT22;38354;52.892;6.148;2023-04-15T10:10:02;10.60;99.90
52435;DHT22;38354;52.892;6.148;2023-04-15T10:12:29;10.60;99.90
52435;DHT22;38354;52.892;6.148;2023-04-15T10:14:58;10.80;99.90
52435;DHT22;38354;52.892;6.148;2023-04-15T10:17:27;11.10;99.90
52435;DHT22;38354;52.892;6.148;2023-04-15T10:19:54;11.40;99.90
52435;DHT22;38354;52.892;6.148;2023-04-15T10:22:21;11.50;99.90
52435;DHT22;38354;52.892;6.148;2023-04-15T10:24:47;11.60;99.90
52435;DHT22;38354;52.892;6.148;2023-04-15T10:27:15;11.80;99.90
52435;DHT22;38354;52.892;6.148;2023-04-15T10:29:42;11.90;99.90
52435;DHT22;38354;52.892;6.148;2023-04-15T10:32:08;12.00;99.90
52435;DHT22;38354;52.892;6.148;2023-04-15T10:34:36;11.90;99.90
52435;DHT22;38354;52.892;6.148;2023-04-15T10:37:02;12.00;99.90
52435;DHT22;38354;52.892;6.148;2023-04-15T10:39:41;12.00;99.90
52435;DHT22;38354;52.892;6.148;2023-04-15T10:42:18;12.10;99.90
52435;DHT22;38354;52.892;6.148;2023-04-15T10:44:48;12.10;99.90
52435;DHT22;38354;52.892;6.148;2023-04-15T10:47:18;12.10;99.90
52435;DHT22;38354;52.892;6.148;2023-04-15T10:49:54;12.10;99.90
52435;DHT22;38354;52.892;6.148;2023-04-15T10:52:23;12.20;99.90
52435;DHT22;38354;52.892;6.148;2023-04-15T10:54:49;12.10;99.90
52435;DHT22;38354;52.892;6.148;2023-04-15T10:57:22;12.00;99.90
52435;DHT22;38354;52.892;6.148;2023-04-15T11:05:10;12.00;99.90
52435;DHT22;38354;52.892;6.148;2023-04-15T11:12:46;11.80;99.90
52435;DHT22;38354;52.892;6.148;2023-04-15T11:18:10;11.80;99.90
52435;DHT22;38354;52.892;6.148;2023-04-15T11:20:36;11.80;99.90
52435;DHT22;38354;52.892;6.148;2023-04-15T11:23:03;11.60;99.90
52435;DHT22;38354;52.892;6.148;2023-04-15T11:25:31;11.60;99.90
52435;DHT22;38354;52.892;6.148;2023-04-15T11:27:58;11.60;99.90
52435;DHT22;38354;52.892;6.148;2023-04-15T11:30:27;11.60;99.90
52435;DHT22;38354;52.892;6.148;2023-04-15T11:32:56;11.60;99.90
52435;DHT22;38354;52.892;6.148;2023-04-15T11:35:22;11.50;99.90
52435;DHT22;38354;52.892;6.148;2023-04-15T11:37:49;11.50;99.90
52435;DHT22;38354;52.892;6.148;2023-04-15T11:40:16;11.40;99.90
52435;DHT22;38354;52.892;6.148;2023-04-15T11:45:29;11.30;99.90
52435;DHT22;38354;52.892;6.148;2023-04-15T11:48:07;11.30;99.90
52435;DHT22;38354;52.892;6.148;2023-04-15T11:50:34;11.30;99.90
52435;DHT22;38354;52.892;6.148;2023-04-15T11:53:01;11.20;99.90
52435;DHT22;38354;52.892;6.148;2023-04-15T11:55:27;11.10;99.90
52435;DHT22;38354;52.892;6.148;2023-04-15T12:01:05;10.90;99.90
52435;DHT22;38354;52.892;6.148;2023-04-15T12:03:44;10.90;99.90
52435;DHT22;38354;52.892;6.148;2023-04-15T12:06:19;10.80;99.90
52435;DHT22;38354;52.892;6.148;2023-04-15T12:11:47;10.70;99.90
52435;DHT22;38354;52.892;6.148;2023-04-15T12:14:27;10.70;99.90
52435;DHT22;38354;52.892;6.148;2023-04-15T12:19:28;10.50;99.90
52435;DHT22;38354;52.892;6.148;2023-04-15T12:21:59;10.50;99.90
52435;DHT22;38354;52.892;6.148;2023-04-15T12:24:25;10.40;99.90
52435;DHT22;38354;52.892;6.148;2023-04-15T12:26:53;10.40;99.90
52435;DHT22;38354;52.892;6.148;2023-04-15T12:29:23;10.40;99.90
52435;DHT22;38354;52.892;6.148;2023-04-15T12:37:06;10.30;99.90
52435;DHT22;38354;52.892;6.148;2023-04-15T12:39:35;10.30;99.90
52435;DHT22;38354;52.892;6.148;2023-04-15T12:42:03;10.30;99.90
52435;DHT22;38354;52.892;6.148;2023-04-15T12:44:29;10.40;99.90
52435;DHT22;38354;52.892;6.148;2023-04-15T12:46:55;10.50;99.90
52435;DHT22;38354;52.892;6.148;2023-04-15T12:49:23;10.50;99.90
52435;DHT22;38354;52.892;6.148;2023-04-15T12:51:50;10.60;99.90
52435;DHT22;38354;52.892;6.148;2023-04-15T12:54:17;10.50;99.90
52435;DHT22;38354;52.892;6.148;2023-04-15T12:56:44;10.50;99.90
52435;DHT22;38354;52.892;6.148;2023-04-15T12:59:10;10.50;99.90
52435;DHT22;38354;52.892;6.148;2023-04-15T13:01:37;10.40;99.90
52435;DHT22;38354;52.892;6.148;2023-04-15T13:04:03;10.40;99.90
52435;DHT22;38354;52.892;6.148;2023-04-15T13:06:28;10.50;99.90
52435;DHT22;38354;52.892;6.148;2023-04-15T13:08:55;10.50;99.90
52435;DHT22;38354;52.892;6.148;2023-04-15T13:11:24;10.50;99.90
52435;DHT22;38354;52.892;6.148;2023-04-15T13:13:50;10.50;99.90
52435;DHT22;38354;52.892;6.148;2023-04-15T13:16:17;10.40;99.90
52435;DHT22;38354;52.892;6.148;2023-04-15T13:18:43;10.50;99.90
52435;DHT22;38354;52.892;6.148;2023-04-15T13:21:11;10.60;99.90
52435;DHT22;38354;52.892;6.148;2023-04-15T13:23:37;10.50;99.90
52435;DHT22;38354;52.892;6.148;2023-04-15T13:26:03;10.50;99.90
52435;DHT22;38354;52.892;6.148;2023-04-15T13:28:29;10.50;99.90
52435;DHT22;38354;52.892;6.148;2023-04-15T13:30:54;10.50;99.90
52435;DHT22;38354;52.892;6.148;2023-04-15T13:33:20;10.50;99.90
52435;DHT22;38354;52.892;6.148;2023-04-15T13:35:46;10.40;99.90
52435;DHT22;38354;52.892;6.148;2023-04-15T13:38:11;10.30;99.90
52435;DHT22;38354;52.892;6.148;2023-04-15T13:40:37;10.20;99.90
52435;DHT22;38354;52.892;6.148;2023-04-15T13:43:02;10.30;99.90
52435;DHT22;38354;52.892;6.148;2023-04-15T13:45:29;10.30;99.90
52435;DHT22;38354;52.892;6.148;2023-04-15T13:47:55;10.30;99.90
52435;DHT22;38354;52.892;6.148;2023-04-15T13:50:22;10.40;99.90
52435;DHT22;38354;52.892;6.148;2023-04-15T13:52:47;10.40;99.90
52435;DHT22;38354;52.892;6.148;2023-04-15T13:55:13;10.40;99.90
52435;DHT22;38354;52.892;6.148;2023-04-15T13:57:39;10.40;99.90
52435;DHT22;38354;52.892;6.148;2023-04-15T14:00:05;10.40;99.90
52435;DHT22;38354;52.892;6.148;2023-04-15T14:02:31;10.40;99.90
52435;DHT22;38354;52.892;6.148;2023-04-15T14:04:56;10.40;99.90
52435;DHT22;38354;52.892;6.148;2023-04-15T14:07:22;10.40;99.90
52435;DHT22;38354;52.892;6.148;2023-04-15T14:09:48;10.40;99.90
52435;DHT22;38354;52.892;6.148;2023-04-15T14:12:14;10.30;99.90
52435;DHT22;38354;52.892;6.148;2023-04-15T14:14:39;10.30;99.90
52435;DHT22;38354;52.892;6.148;2023-04-15T14:17:05;10.30;99.90
52435;DHT22;38354;52.892;6.148;2023-04-15T14:19:31;10.30;99.90
52435;DHT22;38354;52.892;6.148;2023-04-15T14:21:57;10.30;99.90
52435;DHT22;38354;52.892;6.148;2023-04-15T14:24:24;10.20;99.90
52435;DHT22;38354;52.892;6.148;2023-04-15T14:26:49;10.20;99.90
52435;DHT22;38354;52.892;6.148;2023-04-15T14:29:15;10.00;99.90
52435;DHT22;38354;52.892;6.148;2023-04-15T14:31:41;10.00;99.90
52435;DHT22;38354;52.892;6.148;2023-04-15T14:34:09;10.00;99.90
52435;DHT22;38354;52.892;6.148;2023-04-15T14:36:35;10.00;99.90
52435;DHT22;38354;52.892;6.148;2023-04-15T14:39:02;10.00;99.90
52435;DHT22;38354;52.892;6.148;2023-04-15T14:41:28;9.90;99.90
52435;DHT22;38354;52.892;6.148;2023-04-15T14:43:54;9.90;99.90
52435;DHT22;38354;52.892;6.148;2023-04-15T14:46:21;9.90;99.90
52435;DHT22;38354;52.892;6.148;2023-04-15T14:48:47;9.80;99.90
52435;DHT22;38354;52.892;6.148;2023-04-15T14:51:12;9.80;99.90
52435;DHT22;38354;52.892;6.148;2023-04-15T14:53:38;9.70;99.90
52435;DHT22;38354;52.892;6.148;2023-04-15T14:56:04;9.70;99.90
52435;DHT22;38354;52.892;6.148;2023-04-15T14:58:30;9.70;99.90
52435;DHT22;38354;52.892;6.148;2023-04-15T15:00:57;9.70;99.90
52435;DHT22;38354;52.892;6.148;2023-04-15T15:03:22;9.70;99.90
52435;DHT22;38354;52.892;6.148;2023-04-15T15:05:48;9.70;99.90
52435;DHT22;38354;52.892;6.148;2023-04-15T15:08:14;9.70;99.90
52435;DHT22;38354;52.892;6.148;2023-04-15T15:10:39;9.70;99.90
52435;DHT22;38354;52.892;6.148;2023-04-15T15:13:07;9.60;99.90
52435;DHT22;38354;52.892;6.148;2023-04-15T15:15:35;9.50;99.90
52435;DHT22;38354;52.892;6.148;2023-04-15T15:18:01;9.50;99.90
52435;DHT22;38354;52.892;6.148;2023-04-15T15:20:27;9.50;99.90
52435;DHT22;38354;52.892;6.148;2023-04-15T15:22:53;9.50;99.90
52435;DHT22;38354;52.892;6.148;2023-04-15T15:25:19;9.40;99.90
52435;DHT22;38354;52.892;6.148;2023-04-15T15:27:45;9.30;99.90
52435;DHT22;38354;52.892;6.148;2023-04-15T15:30:11;9.30;99.90
52435;DHT22;38354;52.892;6.148;2023-04-15T15:32:39;9.30;99.90
52435;DHT22;38354;52.892;6.148;2023-04-15T15:35:05;9.30;99.90
52435;DHT22;38354;52.892;6.148;2023-04-15T15:37:31;9.30;99.90
52435;DHT22;38354;52.892;6.148;2023-04-15T15:39:57;9.30;99.90
52435;DHT22;38354;52.892;6.148;2023-04-15T15:42:23;9.30;99.90
52435;DHT22;38354;52.892;6.148;2023-04-15T15:44:49;9.30;99.90
52435;DHT22;38354;52.892;6.148;2023-04-15T15:47:20;9.20;99.90
52435;DHT22;38354;52.892;6.148;2023-04-15T15:49:46;9.20;99.90
52435;DHT22;38354;52.892;6.148;2023-04-15T15:52:11;9.20;99.90
52435;DHT22;38354;52.892;6.148;2023-04-15T15:54:39;9.30;99.90
52435;DHT22;38354;52.892;6.148;2023-04-15T15:57:04;9.20;99.90
52435;DHT22;38354;52.892;6.148;2023-04-15T15:59:30;9.20;99.90
52435;DHT22;38354;52.892;6.148;2023-04-15T16:01:58;9.10;99.90
52435;DHT22;38354;52.892;6.148;2023-04-15T16:04:23;9.10;99.90
52435;DHT22;38354;52.892;6.148;2023-04-15T16:06:49;9.10;99.90
52435;DHT22;38354;52.892;6.148;2023-04-15T16:09:16;9.10;99.90
52435;DHT22;38354;52.892;6.148;2023-04-15T16:11:42;9.10;99.90
52435;DHT22;38354;52.892;6.148;2023-04-15T16:14:08;9.10;99.90
52435;DHT22;38354;52.892;6.148;2023-04-15T16:16:34;9.10;99.90
52435;DHT22;38354;52.892;6.148;2023-04-15T16:19:00;9.10;99.90
52435;DHT22;38354;52.892;6.148;2023-04-15T16:21:25;9.10;99.90
52435;DHT22;38354;52.892;6.148;2023-04-15T16:23:52;9.00;99.90
52435;DHT22;38354;52.892;6.148;2023-04-15T16:26:17;9.00;99.90
52435;DHT22;38354;52.892;6.148;2023-04-15T16:28:43;9.00;99.90
52435;DHT22;38354;52.892;6.148;2023-04-15T16:31:10;9.00;99.90
52435;DHT22;38354;52.892;6.148;2023-04-15T16:33:36;9.00;99.90
52435;DHT22;38354;52.892;6.148;2023-04-15T16:36:03;9.00;99.90
52435;DHT22;38354;52.892;6.148;2023-04-15T16:38:29;9.00;99.90
52435;DHT22;38354;52.892;6.148;2023-04-15T16:40:58;8.90;99.90
52435;DHT22;38354;52.892;6.148;2023-04-15T16:43:24;8.90;99.90
52435;DHT22;38354;52.892;6.148;2023-04-15T16:45:51;8.90;99.90
52435;DHT22;38354;52.892;6.148;2023-04-15T16:48:17;8.80;99.90
52435;DHT22;38354;52.892;6.148;2023-04-15T16:50:43;8.80;99.90
52435;DHT22;38354;52.892;6.148;2023-04-15T16:53:09;8.70;99.90
52435;DHT22;38354;52.892;6.148;2023-04-15T16:55:35;8.70;99.90
52435;DHT22;38354;52.892;6.148;2023-04-15T16:58:00;8.70;99.90
52435;DHT22;38354;52.892;6.148;2023-04-15T17:00:27;8.70;99.90
52435;DHT22;38354;52.892;6.148;2023-04-15T17:02:54;8.70;99.90
52435;DHT22;38354;52.892;6.148;2023-04-15T17:05:20;8.70;99.90
52435;DHT22;38354;52.892;6.148;2023-04-15T17:07:45;8.70;99.90
52435;DHT22;38354;52.892;6.148;2023-04-15T17:10:11;8.70;99.90
52435;DHT22;38354;52.892;6.148;2023-04-15T17:12:38;8.70;99.90
52435;DHT22;38354;52.892;6.148;2023-04-15T17:15:05;8.70;99.90
52435;DHT22;38354;52.892;6.148;2023-04-15T17:17:31;8.60;99.90
52435;DHT22;38354;52.892;6.148;2023-04-15T17:19:57;8.60;99.90
52435;DHT22;38354;52.892;6.148;2023-04-15T17:22:22;8.60;99.90
52435;DHT22;38354;52.892;6.148;2023-04-15T17:24:48;8.60;99.90
52435;DHT22;38354;52.892;6.148;2023-04-15T17:27:14;8.60;99.90
52435;DHT22;38354;52.892;6.148;2023-04-15T17:29:39;8.60;99.90
52435;DHT22;38354;52.892;6.148;2023-04-15T17:32:05;8.60;99.90
52435;DHT22;38354;52.892;6.148;2023-04-15T17:34:31;8.60;99.90
52435;DHT22;38354;52.892;6.148;2023-04-15T17:36:57;8.50;99.90
52435;DHT22;38354;52.892;6.148;2023-04-15T17:39:22;8.50;99.90
52435;DHT22;38354;52.892;6.148;2023-04-15T17:41:48;8.50;99.90
52435;DHT22;38354;52.892;6.148;2023-04-15T17:44:14;8.50;99.90
52435;DHT22;38354;52.892;6.148;2023-04-15T17:46:39;8.50;99.90
52435;DHT22;38354;52.892;6.148;2023-04-15T17:49:05;8.50;99.90
52435;DHT22;38354;52.892;6.148;2023-04-15T17:51:31;8.50;99.90
52435;DHT22;38354;52.892;6.148;2023-04-15T17:53:56;8.50;99.90
52435;DHT22;38354;52.892;6.148;2023-04-15T17:56:22;8.50;99.90
52435;DHT22;38354;52.892;6.148;2023-04-15T17:58:50;8.50;99.90
52435;DHT22;38354;52.892;6.148;2023-04-15T18:01:16;8.50;99.90
52435;DHT22;38354;52.892;6.148;2023-04-15T18:03:43;8.50;99.90
52435;DHT22;38354;52.892;6.148;2023-04-15T18:06:10;8.50;99.90
52435;DHT22;38354;52.892;6.148;2023-04-15T18:08:36;8.50;99.90
52435;DHT22;38354;52.892;6.148;2023-04-15T18:11:01;8.50;99.90
52435;DHT22;38354;52.892;6.148;2023-04-15T18:13:27;8.50;99.90
52435;DHT22;38354;52.892;6.148;2023-04-15T18:15:54;8.50;99.90
52435;DHT22;38354;52.892;6.148;2023-04-15T18:18:20;8.50;99.90
52435;DHT22;38354;52.892;6.148;2023-04-15T18:20:45;8.50;99.90
52435;DHT22;38354;52.892;6.148;2023-04-15T18:23:11;8.50;99.90
52435;DHT22;38354;52.892;6.148;2023-04-15T18:25:39;8.40;99.90
52435;DHT22;38354;52.892;6.148;2023-04-15T18:28:08;8.40;99.90
52435;DHT22;38354;52.892;6.148;2023-04-15T18:30:34;8.40;99.90
52435;DHT22;38354;52.892;6.148;2023-04-15T18:33:00;8.40;99.90
52435;DHT22;38354;52.892;6.148;2023-04-15T18:35:25;8.40;99.90
52435;DHT22;38354;52.892;6.148;2023-04-15T18:37:56;8.40;99.90
52435;DHT22;38354;52.892;6.148;2023-04-15T18:40:23;8.40;99.90
52435;DHT22;38354;52.892;6.148;2023-04-15T18:42:49;8.40;99.90
52435;DHT22;38354;52.892;6.148;2023-04-15T18:45:14;8.40;99.90
52435;DHT22;38354;52.892;6.148;2023-04-15T18:47:40;8.40;99.90
52435;DHT22;38354;52.892;6.148;2023-04-15T18:50:07;8.30;99.90
52435;DHT22;38354;52.892;6.148;2023-04-15T18:52:32;8.30;99.90
52435;DHT22;38354;52.892;6.148;2023-04-15T18:54:58;8.30;99.90
52435;DHT22;38354;52.892;6.148;2023-04-15T18:57:25;8.40;99.90
52435;DHT22;38354;52.892;6.148;2023-04-15T18:59:51;8.30;99.90
52435;DHT22;38354;52.892;6.148;2023-04-15T19:02:17;8.30;99.90
52435;DHT22;38354;52.892;6.148;2023-04-15T19:04:43;8.30;99.90
52435;DHT22;38354;52.892;6.148;2023-04-15T19:07:08;8.30;99.90
52435;DHT22;38354;52.892;6.148;2023-04-15T19:09:34;8.30;99.90
52435;DHT22;38354;52.892;6.148;2023-04-15T19:12:01;8.30;99.90
52435;DHT22;38354;52.892;6.148;2023-04-15T19:14:27;8.20;99.90
52435;DHT22;38354;52.892;6.148;2023-04-15T19:16:53;8.20;99.90
52435;DHT22;38354;52.892;6.148;2023-04-15T19:19:19;8.20;99.90
52435;DHT22;38354;52.892;6.148;2023-04-15T19:21:45;8.20;99.90
52435;DHT22;38354;52.892;6.148;2023-04-15T19:24:16;8.30;99.90
52435;DHT22;38354;52.892;6.148;2023-04-15T19:26:43;8.30;99.90
52435;DHT22;38354;52.892;6.148;2023-04-15T19:29:09;8.30;99.90
52435;DHT22;38354;52.892;6.148;2023-04-15T19:31:35;8.20;99.90
52435;DHT22;38354;52.892;6.148;2023-04-15T19:34:00;8.20;99.90
52435;DHT22;38354;52.892;6.148;2023-04-15T19:36:26;8.20;99.90
52435;DHT22;38354;52.892;6.148;2023-04-15T19:38:53;8.20;99.90
52435;DHT22;38354;52.892;6.148;2023-04-15T19:41:18;8.20;99.90
52435;DHT22;38354;52.892;6.148;2023-04-15T19:43:44;8.20;99.90
52435;DHT22;38354;52.892;6.148;2023-04-15T19:46:10;8.20;99.90
52435;DHT22;38354;52.892;6.148;2023-04-15T19:48:37;8.10;99.90
52435;DHT22;38354;52.892;6.148;2023-04-15T19:51:03;8.10;99.90
52435;DHT22;38354;52.892;6.148;2023-04-15T19:53:29;8.10;99.90
52435;DHT22;38354;52.892;6.148;2023-04-15T19:55:55;8.10;99.90
52435;DHT22;38354;52.892;6.148;2023-04-15T19:58:21;8.10;99.90
52435;DHT22;38354;52.892;6.148;2023-04-15T20:00:47;8.10;99.90
52435;DHT22;38354;52.892;6.148;2023-04-15T20:03:12;8.10;99.90
52435;DHT22;38354;52.892;6.148;2023-04-15T20:05:38;8.10;99.90
52435;DHT22;38354;52.892;6.148;2023-04-15T20:08:04;8.10;99.90
52435;DHT22;38354;52.892;6.148;2023-04-15T20:10:29;8.10;99.90